Time;durP1;ratioP1;P1;durP2;ratioP2;P2;SDS_P1;SDS_P2;PMS_P1;PMS_P2;Temp;Humidity;BMP_temperature;BMP_pressure;BME280_temperature;BME280_humidity;BME280_pressure;Samples;Min_cycle;Max_cycle;Signal;HPM_P1;HPM_P2
2023/01/19 00:00:18;;;;;;;;;;;;;;;;;;1045564;28;3946;-49
2023/01/19 00:01:08;;;;;;;;;;;;;;;;;;1041227;28;3992;-50
2023/01/19 00:01:38;;;;;;;;;;;;;;;;;;1040195;28;2323;-48
2023/01/19 00:02:08;;;;;;;;;;;;;;;;;;1044634;28;3946;-50
2023/01/19 00:02:39;;;;;;;;;;;;;;;;;;1046056;28;1862;-49
2023/01/19 00:03:14;;;;;;;;;;;;;;;;;;1045681;28;4226;-50
2023/01/19 00:03:44;;;;;;;;;;;;;;;;;;1046767;28;2596;-50
2023/01/19 00:04:15;;;;;;;;;;;;;;;;;;1045090;28;4263;-51
2023/01/19 00:04:45;;;;;;;;;;;;;;;;;;1046092;28;2267;-50
2023/01/19 00:05:15;;;;;;;;;;;;;;;;;;1044501;28;3992;-50
2023/01/19 00:05:46;;;;;;;;;;;;;;;;;;1042950;28;3453;-49
2023/01/19 00:06:16;;;;;;;;;;;;;;;;;;1044964;28;3921;-50
2023/01/19 00:06:46;;;;;;;;;;;;;;;;;;1044794;28;2806;-51
2023/01/19 00:07:17;;;;;;;;;;;;;;;;;;1045240;28;3919;-50
2023/01/19 00:07:47;;;;;;;;;;;;;;;;;;1044806;28;2833;-49
2023/01/19 00:08:17;;;;;;;;;;;;;;;;;;1046205;28;3968;-47
2023/01/19 00:08:55;;;;;;;;;;;;;;;;;;1045408;28;2957;-51
2023/01/19 00:09:37;;;;;;;;;;;;;;;;;;1049168;28;3671;-48
2023/01/19 00:10:14;;;;;;;;;;;;;;;;;;1048021;28;4338;-50
2023/01/19 00:10:49;;;;;;;;;;;;;;;;;;1046785;28;2778;-52
2023/01/19 00:11:20;;;;;;;;;;;;;;;;;;1049062;28;3701;-50
2023/01/19 00:11:50;;;;;;;;;;;;;;;;;;1047529;28;4069;-47
2023/01/19 00:12:20;;;;;;;;;;;;;;;;;;1047344;28;1661;-50
2023/01/19 00:12:51;;;;;;;;;;;;;;;;;;1047771;28;4495;-47
2023/01/19 00:13:21;;;;;;;;;;;;;;;;;;1048651;28;3013;-52
2023/01/19 00:13:52;;;;;;;;;;;;;;;;;;1047832;28;3901;-48
2023/01/19 00:14:22;;;;;;;;;;;;;;;;;;1048137;28;2296;-49
2023/01/19 00:14:52;;;;;;;;;;;;;;;;;;1046341;28;3958;-53
2023/01/19 00:15:23;;;;;;;;;;;;;;;;;;1049883;28;1694;-48
2023/01/19 00:15:53;;;;;;;;;;;;;;;;;;1048670;28;4086;-48
2023/01/19 00:16:23;;;;;;;;;;;;;;;;;;1050840;28;1775;-48
2023/01/19 00:16:53;;;;;;;;;;;;;;;;;;1047163;28;3770;-49
2023/01/19 00:17:24;;;;;;;;;;;;;;;;;;1048098;28;3046;-51
2023/01/19 00:17:54;;;;;;;;;;;;;;;;;;1048714;28;3900;-49
2023/01/19 00:18:24;;;;;;;;;;;;;;;;;;1049341;28;3029;-51
2023/01/19 00:18:55;;;;;;;;;;;;;;;;;;1049632;28;3956;-47
2023/01/19 00:19:25;;;;;;;;;;;;;;;;;;1046520;28;1580;-51
2023/01/19 00:19:55;;;;;;;;;;;;;;;;;;1047380;28;3857;-48
2023/01/19 00:20:25;;;;;;;;;;;;;;;;;;1046303;28;1832;-50
2023/01/19 00:20:56;;;;;;;;;;;;;;;;;;1046900;28;3869;-48
2023/01/19 00:21:26;;;;;;;;;;;;;;;;;;1051233;28;1831;-51
2023/01/19 00:21:56;;;;;;;;;;;;;;;;;;1050513;28;3947;-49
2023/01/19 00:22:26;;;;;;;;;;;;;;;;;;1049811;28;2389;-47
2023/01/19 00:22:57;;;;;;;;;;;;;;;;;;1047229;28;4050;-51
2023/01/19 00:23:27;;;;;;;;;;;;;;;;;;1049364;28;2287;-49
2023/01/19 00:23:57;;;;;;;;;;;;;;;;;;1045305;28;4004;-51
2023/01/19 00:24:28;;;;;;;;;;;;;;;;;;1050744;28;1636;-50
2023/01/19 00:24:58;;;;;;;;;;;;;;;;;;1045518;28;3868;-50
2023/01/19 00:25:28;;;;;;;;;;;;;;;;;;1048510;28;1716;-51
2023/01/19 00:25:58;;;;;;;;;;;;;;;;;;1046333;28;4082;-50
2023/01/19 00:26:29;;;;;;;;;;;;;;;;;;1048410;28;1850;-49
2023/01/19 00:27:02;;;;;;;;;;;;;;;;;;1049003;28;4501;-51
2023/01/19 00:27:33;;;;;;;;;;;;;;;;;;1046572;28;1667;-47
2023/01/19 00:28:04;;;;;;;;;;;;;;;;;;1050053;28;4401;-49
2023/01/19 00:28:34;;;;;;;;;;;;;;;;;;1050213;28;3178;-53
2023/01/19 00:29:06;;;;;;;;;;;;;;;;;;1049311;28;4203;-49
2023/01/19 00:29:36;;;;;;;;;;;;;;;;;;1048226;28;1698;-52
2023/01/19 00:30:07;;;;;;;;;;;;;;;;;;1048594;28;3954;-53
2023/01/19 00:30:38;;;;;;;;;;;;;;;;;;1049707;28;1774;-52
2023/01/19 00:31:08;;;;;;;;;;;;;;;;;;1046170;28;4108;-49
2023/01/19 00:31:39;;;;;;;;;;;;;;;;;;1047682;28;1590;-50
2023/01/19 00:32:09;;;;;;;;;;;;;;;;;;1048009;28;4185;-51
2023/01/19 00:32:39;;;;;;;;;;;;;;;;;;1040475;28;4951;-48
2023/01/19 00:33:10;;;;;;;;;;;;;;;;;;1040001;28;4161;-49
2023/01/19 00:33:40;;;;;;;;;;;;;;;;;;1038829;28;1934;-47
2023/01/19 00:34:10;;;;;;;;;;;;;;;;;;1038609;28;4002;-49
2023/01/19 00:34:41;;;;;;;;;;;;;;;;;;1040295;28;2290;-49
2023/01/19 00:35:11;;;;;;;;;;;;;;;;;;1039870;28;4418;-47
2023/01/19 00:35:42;;;;;;;;;;;;;;;;;;1040716;28;2576;-47
2023/01/19 00:36:12;;;;;;;;;;;;;;;;;;1038878;28;4232;-51
2023/01/19 00:36:43;;;;;;;;;;;;;;;;;;1039274;28;2798;-50
2023/01/19 00:37:13;;;;;;;;;;;;;;;;;;1039131;28;4279;-48
2023/01/19 00:37:44;;;;;;;;;;;;;;;;;;1039150;28;2756;-51
2023/01/19 00:38:15;;;;;;;;;;;;;;;;;;1040629;28;3773;-50
2023/01/19 00:38:45;;;;;;;;;;;;;;;;;;1038733;28;2422;-51
2023/01/19 00:39:15;;;;;;;;;;;;;;;;;;1039464;28;4170;-47
2023/01/19 00:39:52;;;;;;;;;;;;;;;;;;1039886;28;3819;-50
2023/01/19 00:40:22;;;;;;;;;;;;;;;;;;1038350;28;1601;-52
2023/01/19 00:40:52;;;;;;;;;;;;;;;;;;1039116;28;3995;-51
2023/01/19 00:42:38;;;;;;;;;;;;;;;;;;1039116;28;2856;-51
2023/01/19 00:43:03;;;;;;;;;;;;;;;;;;1039010;28;3903;-51
2023/01/19 00:43:34;;;;;;;;;;;;;;;;;;1040778;28;1644;-51
2023/01/19 00:44:04;;;;;;;;;;;;;;;;;;1040048;28;3857;-50
2023/01/19 00:44:34;;;;;;;;;;;;;;;;;;1039040;28;1683;-48
2023/01/19 00:45:06;;;;;;;;;;;;;;;;;;1038525;28;4413;-52
2023/01/19 00:45:36;;;;;;;;;;;;;;;;;;1040726;28;2422;-50
2023/01/19 00:46:06;;;;;;;;;;;;;;;;;;1039368;28;3852;-52
2023/01/19 00:46:37;;;;;;;;;;;;;;;;;;1038314;28;1857;-48
2023/01/19 00:47:07;;;;;;;;;;;;;;;;;;1036968;28;4224;-49
2023/01/19 00:47:38;;;;;;;;;;;;;;;;;;1037961;28;1717;-53
2023/01/19 00:48:08;;;;;;;;;;;;;;;;;;1040653;28;4125;-50
2023/01/19 00:48:38;;;;;;;;;;;;;;;;;;1040473;28;2797;-52
2023/01/19 00:49:09;;;;;;;;;;;;;;;;;;1039014;28;3947;-50
2023/01/19 00:49:39;;;;;;;;;;;;;;;;;;1039353;28;2927;-49
2023/01/19 00:50:10;;;;;;;;;;;;;;;;;;1038728;28;4210;-50
2023/01/19 00:50:40;;;;;;;;;;;;;;;;;;1037196;28;2858;-50
2023/01/19 00:51:11;;;;;;;;;;;;;;;;;;1038576;28;4035;-51
2023/01/19 00:51:41;;;;;;;;;;;;;;;;;;1038998;28;3365;-48
2023/01/19 00:52:11;;;;;;;;;;;;;;;;;;1040185;28;3946;-50
2023/01/19 00:52:42;;;;;;;;;;;;;;;;;;1039525;28;3086;-49
2023/01/19 00:53:12;;;;;;;;;;;;;;;;;;1041772;28;4389;-50
2023/01/19 00:53:43;;;;;;;;;;;;;;;;;;1042334;28;2116;-48
2023/01/19 00:54:13;;;;;;;;;;;;;;;;;;1042366;28;3979;-47
2023/01/19 00:54:43;;;;;;;;;;;;;;;;;;1042694;28;2001;-48
2023/01/19 00:55:14;;;;;;;;;;;;;;;;;;1042411;28;4169;-52
2023/01/19 00:55:44;;;;;;;;;;;;;;;;;;1038781;28;2429;-48
2023/01/19 00:56:15;;;;;;;;;;;;;;;;;;1040539;28;4437;-51
2023/01/19 00:56:45;;;;;;;;;;;;;;;;;;1038910;28;2916;-48
2023/01/19 00:57:16;;;;;;;;;;;;;;;;;;1039896;28;3875;-51
2023/01/19 00:57:46;;;;;;;;;;;;;;;;;;1039220;28;1926;-50
2023/01/19 00:58:16;;;;;;;;;;;;;;;;;;1041512;28;3823;-52
2023/01/19 00:58:46;;;;;;;;;;;;;;;;;;1039842;28;2952;-51
2023/01/19 00:59:17;;;;;;;;;;;;;;;;;;1039921;28;3992;-50
2023/01/19 00:59:47;;;;;;;;;;;;;;;;;;1043115;28;2117;-50
2023/01/19 01:00:20;;;;;;;;;;;;;;;;;;1040526;28;4414;-50
2023/01/19 01:00:52;;;;;;;;;;;;;;;;;;1040243;28;4399;-52
2023/01/19 01:01:22;;;;;;;;;;;;;;;;;;1039796;28;3060;-49
2023/01/19 01:01:52;;;;;;;;;;;;;;;;;;1040585;28;4063;-47
2023/01/19 01:02:23;;;;;;;;;;;;;;;;;;1043161;28;2002;-50
2023/01/19 01:02:53;;;;;;;;;;;;;;;;;;1040029;28;4048;-48
2023/01/19 01:03:26;;;;;;;;;;;;;;;;;;1038351;28;1706;-47
2023/01/19 01:03:56;;;;;;;;;;;;;;;;;;1040475;28;4247;-52
2023/01/19 01:04:27;;;;;;;;;;;;;;;;;;1039708;28;2121;-47
2023/01/19 01:05:01;;;;;;;;;;;;;;;;;;1039791;28;3940;-47
2023/01/19 01:05:31;;;;;;;;;;;;;;;;;;1038725;28;2609;-50
2023/01/19 01:06:02;;;;;;;;;;;;;;;;;;1040112;28;4386;-50
2023/01/19 01:06:32;;;;;;;;;;;;;;;;;;1040877;28;2187;-49
2023/01/19 01:07:03;;;;;;;;;;;;;;;;;;1039650;28;4070;-50
2023/01/19 01:07:39;;;;;;;;;;;;;;;;;;1039919;28;1330;-49
2023/01/19 01:08:09;;;;;;;;;;;;;;;;;;1039721;28;4047;-51
2023/01/19 01:08:39;;;;;;;;;;;;;;;;;;1038916;28;2690;-48
2023/01/19 01:09:17;;;;;;;;;;;;;;;;;;1041232;28;3956;-51
2023/01/19 01:09:55;;;;;;;;;;;;;;;;;;1042695;28;2120;-49
2023/01/19 01:10:32;;;;;;;;;;;;;;;;;;1041730;28;3924;-51
2023/01/19 01:11:02;;;;;;;;;;;;;;;;;;1039543;28;4065;-49
2023/01/19 01:11:32;;;;;;;;;;;;;;;;;;1042484;28;2667;-50
2023/01/19 01:12:03;;;;;;;;;;;;;;;;;;1043837;28;4076;-48
2023/01/19 01:12:33;;;;;;;;;;;;;;;;;;1045383;28;2840;-49
2023/01/19 01:13:03;;;;;;;;;;;;;;;;;;1043168;28;4174;-51
2023/01/19 01:13:34;;;;;;;;;;;;;;;;;;1040908;28;2726;-52
2023/01/19 01:14:04;;;;;;;;;;;;;;;;;;1039886;28;4089;-49
2023/01/19 01:14:34;;;;;;;;;;;;;;;;;;1040698;28;1897;-48
2023/01/19 01:15:06;;;;;;;;;;;;;;;;;;1038849;28;4014;-49
2023/01/19 01:15:36;;;;;;;;;;;;;;;;;;1045675;28;2106;-52
2023/01/19 01:16:08;;;;;;;;;;;;;;;;;;1042902;28;3831;-51
2023/01/19 01:16:39;;;;;;;;;;;;;;;;;;1044464;28;2662;-48
2023/01/19 01:17:10;;;;;;;;;;;;;;;;;;1042942;28;4135;-47
2023/01/19 01:17:46;;;;;;;;;;;;;;;;;;1043990;28;2009;-52
2023/01/19 01:18:17;;;;;;;;;;;;;;;;;;1043177;28;3981;-49
2023/01/19 01:18:47;;;;;;;;;;;;;;;;;;1045012;28;1698;-51
2023/01/19 01:19:17;;;;;;;;;;;;;;;;;;1042594;28;3900;-52
2023/01/19 01:19:48;;;;;;;;;;;;;;;;;;1046133;28;2769;-48
2023/01/19 01:20:19;;;;;;;;;;;;;;;;;;1043459;28;3872;-50
2023/01/19 01:20:50;;;;;;;;;;;;;;;;;;1047329;28;3799;-48
2023/01/19 01:21:20;;;;;;;;;;;;;;;;;;1046108;28;1892;-52
2023/01/19 01:21:50;;;;;;;;;;;;;;;;;;1046085;28;4100;-50
2023/01/19 01:22:20;;;;;;;;;;;;;;;;;;1043878;28;2822;-49
2023/01/19 01:22:52;;;;;;;;;;;;;;;;;;1044372;28;4269;-50
2023/01/19 01:23:22;;;;;;;;;;;;;;;;;;1044747;28;2274;-51
2023/01/19 01:23:52;;;;;;;;;;;;;;;;;;1044816;28;4085;-50
2023/01/19 01:24:22;;;;;;;;;;;;;;;;;;1042143;28;2802;-50
2023/01/19 01:24:53;;;;;;;;;;;;;;;;;;1043720;28;3910;-47
2023/01/19 01:25:24;;;;;;;;;;;;;;;;;;1044626;28;2716;-50
2023/01/19 01:25:54;;;;;;;;;;;;;;;;;;1042887;28;3828;-49
2023/01/19 01:26:24;;;;;;;;;;;;;;;;;;1044546;28;2853;-53
2023/01/19 01:26:55;;;;;;;;;;;;;;;;;;1043266;28;4237;-54
2023/01/19 01:27:25;;;;;;;;;;;;;;;;;;1044920;28;3117;-51
2023/01/19 01:27:55;;;;;;;;;;;;;;;;;;1043932;28;4055;-52
2023/01/19 01:28:26;;;;;;;;;;;;;;;;;;1044722;28;2909;-50
2023/01/19 01:28:56;;;;;;;;;;;;;;;;;;1042383;28;3991;-50
2023/01/19 01:29:26;;;;;;;;;;;;;;;;;;1044888;28;2062;-49
2023/01/19 01:30:03;;;;;;;;;;;;;;;;;;1042430;28;4532;-54
2023/01/19 01:30:34;;;;;;;;;;;;;;;;;;1044392;28;2969;-50
2023/01/19 01:31:11;;;;;;;;;;;;;;;;;;1043005;28;3776;-49
2023/01/19 01:31:41;;;;;;;;;;;;;;;;;;1044241;28;1858;-48
2023/01/19 01:32:15;;;;;;;;;;;;;;;;;;1042397;28;4423;-48
2023/01/19 01:32:52;;;;;;;;;;;;;;;;;;1045683;28;4047;-54
2023/01/19 01:33:22;;;;;;;;;;;;;;;;;;1042363;28;3185;-49
2023/01/19 01:33:53;;;;;;;;;;;;;;;;;;1043080;28;4027;-49
2023/01/19 01:34:23;;;;;;;;;;;;;;;;;;1038311;28;2395;-50
2023/01/19 01:34:53;;;;;;;;;;;;;;;;;;1039134;28;4377;-51
2023/01/19 01:35:23;;;;;;;;;;;;;;;;;;1040541;28;2754;-48
2023/01/19 01:35:54;;;;;;;;;;;;;;;;;;1040538;28;3906;-49
2023/01/19 01:36:27;;;;;;;;;;;;;;;;;;1044142;28;2808;-50
2023/01/19 01:36:58;;;;;;;;;;;;;;;;;;1040712;28;4495;-51
2023/01/19 01:37:28;;;;;;;;;;;;;;;;;;1039154;28;2775;-49
2023/01/19 01:37:59;;;;;;;;;;;;;;;;;;1039252;28;3889;-47
2023/01/19 01:38:29;;;;;;;;;;;;;;;;;;1040998;28;2393;-51
2023/01/19 01:39:00;;;;;;;;;;;;;;;;;;1044208;28;4451;-48
2023/01/19 01:39:30;;;;;;;;;;;;;;;;;;1043584;28;1349;-53
2023/01/19 01:40:00;;;;;;;;;;;;;;;;;;1042881;28;4169;-49
2023/01/19 01:40:30;;;;;;;;;;;;;;;;;;1044577;28;2874;-52
2023/01/19 01:41:01;;;;;;;;;;;;;;;;;;1043528;28;4088;-50
2023/01/19 01:41:31;;;;;;;;;;;;;;;;;;1044653;28;2899;-46
2023/01/19 01:42:02;;;;;;;;;;;;;;;;;;1042839;28;4397;-50
2023/01/19 01:42:33;;;;;;;;;;;;;;;;;;1043655;28;1644;-51
2023/01/19 01:43:05;;;;;;;;;;;;;;;;;;1045079;28;3801;-47
2023/01/19 01:43:53;;;;;;;;;;;;;;;;;;1044440;28;2843;-49
2023/01/19 01:44:48;;;;;;;;;;;;;;;;;;1044906;28;4116;-50
2023/01/19 01:45:32;;;;;;;;;;;;;;;;;;1043660;28;4001;-50
2023/01/19 01:46:02;;;;;;;;;;;;;;;;;;1042447;28;3896;-53
2023/01/19 01:46:32;;;;;;;;;;;;;;;;;;1045458;28;2829;-49
2023/01/19 01:47:03;;;;;;;;;;;;;;;;;;1043891;28;4255;-49
2023/01/19 01:47:44;;;;;;;;;;;;;;;;;;1040917;28;2018;-51
2023/01/19 01:48:24;;;;;;;;;;;;;;;;;;1041500;28;4507;-47
2023/01/19 01:48:54;;;;;;;;;;;;;;;;;;1037779;28;4377;-50
2023/01/19 01:49:24;;;;;;;;;;;;;;;;;;1043771;28;2186;-49
2023/01/19 01:50:01;;;;;;;;;;;;;;;;;;1043884;28;4544;-54
2023/01/19 01:50:34;;;;;;;;;;;;;;;;;;1043851;28;2969;-53
2023/01/19 01:51:24;;;;;;;;;;;;;;;;;;1044596;28;4242;-48
2023/01/19 01:51:55;;;;;;;;;;;;;;;;;;1044209;28;3949;-53
2023/01/19 01:52:26;;;;;;;;;;;;;;;;;;1043819;28;2964;-50
2023/01/19 01:53:00;;;;;;;;;;;;;;;;;;1044834;28;3791;-47
2023/01/19 01:53:32;;;;;;;;;;;;;;;;;;1044815;28;2024;-50
2023/01/19 01:54:06;;;;;;;;;;;;;;;;;;1043190;28;3853;-48
2023/01/19 01:54:36;;;;;;;;;;;;;;;;;;1043420;28;2804;-50
2023/01/19 01:55:07;;;;;;;;;;;;;;;;;;1039485;28;3877;-50
2023/01/19 01:55:40;;;;;;;;;;;;;;;;;;1039661;28;2155;-48
2023/01/19 01:56:14;;;;;;;;;;;;;;;;;;1040193;28;3783;-50
2023/01/19 01:56:48;;;;;;;;;;;;;;;;;;1042426;28;2830;-52
2023/01/19 01:57:18;;;;;;;;;;;;;;;;;;1043085;28;3957;-49
2023/01/19 01:57:51;;;;;;;;;;;;;;;;;;1038755;28;1520;-49
2023/01/19 01:58:21;;;;;;;;;;;;;;;;;;1039893;28;3846;-49
2023/01/19 01:58:51;;;;;;;;;;;;;;;;;;1038796;28;3970;-48
2023/01/19 01:59:26;;;;;;;;;;;;;;;;;;1039805;28;2495;-53
2023/01/19 01:59:57;;;;;;;;;;;;;;;;;;1044231;28;3974;-50
2023/01/19 02:02:49;;;;;;;;;;;;;;;;;;1044514;28;3279;-49
2023/01/19 02:03:02;;;;;;;;;;;;;;;;;;1045286;28;4046;-53
2023/01/19 02:03:32;;;;;;;;;;;;;;;;;;1044346;28;2779;-47
2023/01/19 02:04:02;;;;;;;;;;;;;;;;;;1043760;28;3900;-49
2023/01/19 02:04:33;;;;;;;;;;;;;;;;;;1043418;28;3164;-50
2023/01/19 02:05:05;;;;;;;;;;;;;;;;;;1043588;28;3795;-49
2023/01/19 02:05:35;;;;;;;;;;;;;;;;;;1044498;28;2665;-48
2023/01/19 02:06:06;;;;;;;;;;;;;;;;;;1043857;28;4431;-49
2023/01/19 02:13:18;;;;;;;;;;;;;;;;;;1044202;28;3999;-49
2023/01/19 02:13:49;;;;;;;;;;;;;;;;;;1043023;28;2007;-49
2023/01/19 02:14:19;;;;;;;;;;;;;;;;;;1044461;28;3847;-49
2023/01/19 02:14:50;;;;;;;;;;;;;;;;;;1042739;28;4043;-49
2023/01/19 02:15:20;;;;;;;;;;;;;;;;;;1044511;28;2831;-48
2023/01/19 02:15:52;;;;;;;;;;;;;;;;;;1045379;28;4417;-51
2023/01/19 02:16:22;;;;;;;;;;;;;;;;;;1038072;28;2879;-52
2023/01/19 02:16:52;;;;;;;;;;;;;;;;;;1034712;28;4097;-53
2023/01/19 02:17:22;;;;;;;;;;;;;;;;;;1036929;28;2511;-51
2023/01/19 02:17:53;;;;;;;;;;;;;;;;;;1037703;28;4491;-50
2023/01/19 02:18:25;;;;;;;;;;;;;;;;;;1039708;28;2692;-53
2023/01/19 02:18:56;;;;;;;;;;;;;;;;;;1042540;28;3784;-49
2023/01/19 02:19:29;;;;;;;;;;;;;;;;;;1043749;28;1997;-46
2023/01/19 02:20:00;;;;;;;;;;;;;;;;;;1042633;28;4460;-47
2023/01/19 02:20:30;;;;;;;;;;;;;;;;;;1043688;28;2068;-47
2023/01/19 02:21:21;;;;;;;;;;;;;;;;;;1042363;28;3767;-49
2023/01/19 02:21:54;;;;;;;;;;;;;;;;;;1043371;28;4001;-51
2023/01/19 02:22:30;;;;;;;;;;;;;;;;;;1045148;28;2406;-50
2023/01/19 02:23:03;;;;;;;;;;;;;;;;;;1044013;28;3811;-50
2023/01/19 02:23:37;;;;;;;;;;;;;;;;;;1040643;28;2846;-48
2023/01/19 02:24:08;;;;;;;;;;;;;;;;;;1041022;28;4031;-50
2023/01/19 02:24:38;;;;;;;;;;;;;;;;;;1039392;28;2236;-49
2023/01/19 02:25:09;;;;;;;;;;;;;;;;;;1040826;28;3939;-52
2023/01/19 02:25:39;;;;;;;;;;;;;;;;;;1047164;28;2307;-49
2023/01/19 02:26:10;;;;;;;;;;;;;;;;;;1044141;28;4275;-51
2023/01/19 02:26:43;;;;;;;;;;;;;;;;;;1042625;28;2800;-51
2023/01/19 02:27:14;;;;;;;;;;;;;;;;;;1044002;28;4371;-50
2023/01/19 02:27:44;;;;;;;;;;;;;;;;;;1042619;28;2674;-49
2023/01/19 02:28:15;;;;;;;;;;;;;;;;;;1044778;28;3980;-52
2023/01/19 02:28:49;;;;;;;;;;;;;;;;;;1044274;28;1583;-53
2023/01/19 02:29:21;;;;;;;;;;;;;;;;;;1044693;28;3941;-47
2023/01/19 02:29:52;;;;;;;;;;;;;;;;;;1039597;28;4268;-49
2023/01/19 02:30:22;;;;;;;;;;;;;;;;;;1040512;28;2485;-49
2023/01/19 02:30:53;;;;;;;;;;;;;;;;;;1037819;28;4061;-52
2023/01/19 02:31:23;;;;;;;;;;;;;;;;;;1040333;28;2828;-50
2023/01/19 02:31:55;;;;;;;;;;;;;;;;;;1042444;28;4351;-49
2023/01/19 02:32:25;;;;;;;;;;;;;;;;;;1044355;28;1672;-50
2023/01/19 02:33:02;;;;;;;;;;;;;;;;;;1041790;28;3751;-51
2023/01/19 02:33:32;;;;;;;;;;;;;;;;;;1044585;28;3161;-49
2023/01/19 02:34:03;;;;;;;;;;;;;;;;;;1045509;28;4074;-50
2023/01/19 02:34:34;;;;;;;;;;;;;;;;;;1047266;28;2150;-51
2023/01/19 02:35:04;;;;;;;;;;;;;;;;;;1043435;28;4105;-48
2023/01/19 02:35:36;;;;;;;;;;;;;;;;;;1041207;28;3762;-49
2023/01/19 02:36:08;;;;;;;;;;;;;;;;;;1037959;28;3757;-50
2023/01/19 02:36:41;;;;;;;;;;;;;;;;;;1038494;28;2687;-49
2023/01/19 02:37:13;;;;;;;;;;;;;;;;;;1040059;28;4403;-50
2023/01/19 02:37:43;;;;;;;;;;;;;;;;;;1044625;28;2775;-48
2023/01/19 02:38:15;;;;;;;;;;;;;;;;;;1042662;28;4033;-48
2023/01/19 02:38:45;;;;;;;;;;;;;;;;;;1044314;28;2669;-50
2023/01/19 02:39:18;;;;;;;;;;;;;;;;;;1043261;28;4028;-50
2023/01/19 02:39:56;;;;;;;;;;;;;;;;;;1043982;28;2612;-53
2023/01/19 02:40:27;;;;;;;;;;;;;;;;;;1042943;28;3912;-52
2023/01/19 02:40:59;;;;;;;;;;;;;;;;;;1042963;28;4167;-47
2023/01/19 02:41:38;;;;;;;;;;;;;;;;;;1042912;28;2744;-50
2023/01/19 02:42:11;;;;;;;;;;;;;;;;;;1045183;28;4146;-49
2023/01/19 02:42:44;;;;;;;;;;;;;;;;;;1045147;28;2475;-50
2023/01/19 02:43:15;;;;;;;;;;;;;;;;;;1044279;28;3930;-52
2023/01/19 02:43:47;;;;;;;;;;;;;;;;;;1043599;28;2687;-49
2023/01/19 02:44:18;;;;;;;;;;;;;;;;;;1042309;28;4084;-50
2023/01/19 02:44:50;;;;;;;;;;;;;;;;;;1044269;28;2116;-48
2023/01/19 02:45:21;;;;;;;;;;;;;;;;;;1043595;28;3744;-48
2023/01/19 02:45:51;;;;;;;;;;;;;;;;;;1042682;28;4257;-52
2023/01/19 02:46:21;;;;;;;;;;;;;;;;;;1043534;28;2766;-50
2023/01/19 02:46:52;;;;;;;;;;;;;;;;;;1043669;28;5004;-50
2023/01/19 02:47:23;;;;;;;;;;;;;;;;;;1043537;28;2797;-52
2023/01/19 02:47:53;;;;;;;;;;;;;;;;;;1042718;28;3963;-51
2023/01/19 02:48:23;;;;;;;;;;;;;;;;;;1042641;28;2776;-48
2023/01/19 02:48:57;;;;;;;;;;;;;;;;;;1043477;28;3908;-52
2023/01/19 02:49:29;;;;;;;;;;;;;;;;;;1044276;28;1910;-47
2023/01/19 02:49:59;;;;;;;;;;;;;;;;;;1038467;28;3940;-47
2023/01/19 02:50:40;;;;;;;;;;;;;;;;;;1039852;28;2830;-51
2023/01/19 02:51:14;;;;;;;;;;;;;;;;;;1039266;28;4016;-47
2023/01/19 02:51:44;;;;;;;;;;;;;;;;;;1041683;28;2897;-49
2023/01/19 02:52:16;;;;;;;;;;;;;;;;;;1041387;28;4125;-49
2023/01/19 02:52:47;;;;;;;;;;;;;;;;;;1038809;28;2863;-49
2023/01/19 02:53:35;;;;;;;;;;;;;;;;;;1035088;28;3949;-50
2023/01/19 02:54:17;;;;;;;;;;;;;;;;;;1035428;28;4231;-49
2023/01/19 02:54:54;;;;;;;;;;;;;;;;;;1040494;28;2664;-52
2023/01/19 02:55:27;;;;;;;;;;;;;;;;;;1042900;28;3671;-52
2023/01/19 02:56:02;;;;;;;;;;;;;;;;;;1042948;28;4041;-48
2023/01/19 02:56:32;;;;;;;;;;;;;;;;;;1042569;28;2761;-51
2023/01/19 02:57:20;;;;;;;;;;;;;;;;;;1043893;28;4070;-47
2023/01/19 02:57:57;;;;;;;;;;;;;;;;;;1042914;28;3899;-51
2023/01/19 02:58:37;;;;;;;;;;;;;;;;;;1040862;28;1974;-49
2023/01/19 02:59:16;;;;;;;;;;;;;;;;;;1040529;28;3956;-50
2023/01/19 03:00:09;;;;;;;;;;;;;;;;;;1041975;28;1806;-49
2023/01/19 03:00:39;;;;;;;;;;;;;;;;;;1046181;28;3945;-51
2023/01/19 03:01:10;;;;;;;;;;;;;;;;;;1046959;28;3901;-52
2023/01/19 03:02:00;;;;;;;;;;;;;;;;;;1043217;28;1864;-47
2023/01/19 03:02:35;;;;;;;;;;;;;;;;;;1044549;28;3831;-53
2023/01/19 03:03:11;;;;;;;;;;;;;;;;;;1043321;28;3950;-50
2023/01/19 03:03:49;;;;;;;;;;;;;;;;;;1043912;28;2179;-50
2023/01/19 03:04:38;;;;;;;;;;;;;;;;;;1042922;28;4196;-47
2023/01/19 03:05:28;;;;;;;;;;;;;;;;;;1042182;28;3959;-51
2023/01/19 03:06:01;;;;;;;;;;;;;;;;;;1043666;28;4431;-51
2023/01/19 03:06:50;;;;;;;;;;;;;;;;;;1044793;28;2129;-49
2023/01/19 03:07:29;;;;;;;;;;;;;;;;;;1043020;28;4009;-48
2023/01/19 03:08:06;;;;;;;;;;;;;;;;;;1043940;28;4046;-49
2023/01/19 03:08:42;;;;;;;;;;;;;;;;;;1044078;28;1834;-50
2023/01/19 03:09:18;;;;;;;;;;;;;;;;;;1041433;28;4015;-48
2023/01/19 03:10:04;;;;;;;;;;;;;;;;;;1042341;28;2487;-51
2023/01/19 03:10:40;;;;;;;;;;;;;;;;;;1043659;28;3722;-51
2023/01/19 03:11:11;;;;;;;;;;;;;;;;;;1045036;28;4148;-48
2023/01/19 03:11:45;;;;;;;;;;;;;;;;;;1043281;28;2030;-49
2023/01/19 03:12:22;;;;;;;;;;;;;;;;;;1044205;28;3951;-50
2023/01/19 03:12:56;;;;;;;;;;;;;;;;;;1042770;28;3907;-48
2023/01/19 03:13:45;;;;;;;;;;;;;;;;;;1045035;28;2458;-47
2023/01/19 03:14:18;;;;;;;;;;;;;;;;;;1043648;28;4017;-48
2023/01/19 03:14:48;;;;;;;;;;;;;;;;;;1044219;28;3168;-50
2023/01/19 03:15:22;;;;;;;;;;;;;;;;;;1042424;28;4027;-48
2023/01/19 03:15:59;;;;;;;;;;;;;;;;;;1042437;28;4009;-50
2023/01/19 03:16:29;;;;;;;;;;;;;;;;;;1042699;28;1958;-47
2023/01/19 03:17:01;;;;;;;;;;;;;;;;;;1043158;28;4020;-49
2023/01/19 03:17:33;;;;;;;;;;;;;;;;;;1040735;28;3492;-52
2023/01/19 03:18:05;;;;;;;;;;;;;;;;;;1041169;28;3907;-50
2023/01/19 03:18:36;;;;;;;;;;;;;;;;;;1040017;28;2649;-50
2023/01/19 03:19:26;;;;;;;;;;;;;;;;;;1042845;28;4460;-47
2023/01/19 03:19:56;;;;;;;;;;;;;;;;;;1044927;28;4256;-49
2023/01/19 03:20:27;;;;;;;;;;;;;;;;;;1043673;28;2579;-50
2023/01/19 03:20:59;;;;;;;;;;;;;;;;;;1043125;28;3875;-48
2023/01/19 03:21:32;;;;;;;;;;;;;;;;;;1045240;28;2479;-49
2023/01/19 03:22:06;;;;;;;;;;;;;;;;;;1043846;28;3972;-50
2023/01/19 03:22:36;;;;;;;;;;;;;;;;;;1042797;28;3283;-51
2023/01/19 03:23:08;;;;;;;;;;;;;;;;;;1042968;28;4119;-46
2023/01/19 03:23:40;;;;;;;;;;;;;;;;;;1043881;28;1748;-49
2023/01/19 03:24:11;;;;;;;;;;;;;;;;;;1043019;28;3795;-49
2023/01/19 03:24:49;;;;;;;;;;;;;;;;;;1043290;28;2361;-49
2023/01/19 03:25:20;;;;;;;;;;;;;;;;;;1042366;28;3892;-49
2023/01/19 03:25:52;;;;;;;;;;;;;;;;;;1045317;28;4386;-49
2023/01/19 03:26:25;;;;;;;;;;;;;;;;;;1043875;28;2086;-52
2023/01/19 03:26:58;;;;;;;;;;;;;;;;;;1043109;28;4443;-49
2023/01/19 03:27:30;;;;;;;;;;;;;;;;;;1044255;28;2757;-50
2023/01/19 03:28:02;;;;;;;;;;;;;;;;;;1042256;28;4138;-54
2023/01/19 03:28:33;;;;;;;;;;;;;;;;;;1042766;28;1898;-50
2023/01/19 03:29:05;;;;;;;;;;;;;;;;;;1042670;28;4135;-46
2023/01/19 03:29:37;;;;;;;;;;;;;;;;;;1043873;28;2609;-53
2023/01/19 03:30:09;;;;;;;;;;;;;;;;;;1043411;28;3982;-52
2023/01/19 03:30:44;;;;;;;;;;;;;;;;;;1042184;28;2846;-50
2023/01/19 03:31:20;;;;;;;;;;;;;;;;;;1045329;28;3734;-51
2023/01/19 03:31:50;;;;;;;;;;;;;;;;;;1042801;28;4039;-48
2023/01/19 03:32:24;;;;;;;;;;;;;;;;;;1044886;28;2148;-49
2023/01/19 03:33:03;;;;;;;;;;;;;;;;;;1042063;28;4060;-47
2023/01/19 03:33:36;;;;;;;;;;;;;;;;;;1045209;28;2193;-50
2023/01/19 03:34:07;;;;;;;;;;;;;;;;;;1045586;28;4059;-46
2023/01/19 03:34:38;;;;;;;;;;;;;;;;;;1043868;28;3003;-51
2023/01/19 03:35:12;;;;;;;;;;;;;;;;;;1044278;28;4001;-49
2023/01/19 03:35:44;;;;;;;;;;;;;;;;;;1043645;28;2542;-50
2023/01/19 03:36:24;;;;;;;;;;;;;;;;;;1043368;28;3916;-52
2023/01/19 03:36:57;;;;;;;;;;;;;;;;;;1045039;28;3961;-49
2023/01/19 03:37:29;;;;;;;;;;;;;;;;;;1044174;28;3002;-48
2023/01/19 03:38:02;;;;;;;;;;;;;;;;;;1041879;28;4301;-52
2023/01/19 03:38:34;;;;;;;;;;;;;;;;;;1043037;28;2101;-49
2023/01/19 03:39:06;;;;;;;;;;;;;;;;;;1042306;28;4153;-49
2023/01/19 03:39:36;;;;;;;;;;;;;;;;;;1044187;28;1696;-47
2023/01/19 03:40:07;;;;;;;;;;;;;;;;;;1042583;28;3884;-49
2023/01/19 03:40:38;;;;;;;;;;;;;;;;;;1045023;28;2306;-48
2023/01/19 03:41:10;;;;;;;;;;;;;;;;;;1043271;28;3879;-50
2023/01/19 03:41:42;;;;;;;;;;;;;;;;;;1044466;28;2643;-46
2023/01/19 03:42:13;;;;;;;;;;;;;;;;;;1044101;28;4409;-50
2023/01/19 03:42:50;;;;;;;;;;;;;;;;;;1042805;28;3942;-51
2023/01/19 03:43:22;;;;;;;;;;;;;;;;;;1043640;28;2687;-49
2023/01/19 03:43:54;;;;;;;;;;;;;;;;;;1043924;28;5278;-48
2023/01/19 03:44:26;;;;;;;;;;;;;;;;;;1043912;28;2078;-49
2023/01/19 03:44:59;;;;;;;;;;;;;;;;;;1043306;28;3882;-51
2023/01/19 03:45:30;;;;;;;;;;;;;;;;;;1043089;28;2873;-51
2023/01/19 03:46:01;;;;;;;;;;;;;;;;;;1046063;28;4426;-50
2023/01/19 03:46:32;;;;;;;;;;;;;;;;;;1043336;28;1896;-52
2023/01/19 03:47:03;;;;;;;;;;;;;;;;;;1044317;28;3835;-50
2023/01/19 03:47:34;;;;;;;;;;;;;;;;;;1041914;28;2916;-50
2023/01/19 03:48:05;;;;;;;;;;;;;;;;;;1044250;28;3808;-47
2023/01/19 03:48:35;;;;;;;;;;;;;;;;;;1043494;28;2095;-51
2023/01/19 03:49:06;;;;;;;;;;;;;;;;;;1042099;28;4199;-48
2023/01/19 03:49:38;;;;;;;;;;;;;;;;;;1044061;28;2905;-49
2023/01/19 03:50:12;;;;;;;;;;;;;;;;;;1044202;28;4381;-51
2023/01/19 03:50:42;;;;;;;;;;;;;;;;;;1043777;28;2863;-51
2023/01/19 03:51:13;;;;;;;;;;;;;;;;;;1042857;28;4069;-49
2023/01/19 03:51:43;;;;;;;;;;;;;;;;;;1044115;28;2736;-46
2023/01/19 03:52:13;;;;;;;;;;;;;;;;;;1044291;28;4509;-53
2023/01/19 03:52:44;;;;;;;;;;;;;;;;;;1044485;28;2625;-49
2023/01/19 03:53:15;;;;;;;;;;;;;;;;;;1043420;28;3996;-47
2023/01/19 03:53:46;;;;;;;;;;;;;;;;;;1044736;28;1786;-53
2023/01/19 03:54:16;;;;;;;;;;;;;;;;;;1043949;28;4400;-50
2023/01/19 03:54:47;;;;;;;;;;;;;;;;;;1043430;28;2152;-52